createdAt,value
2023-03-26T00:01:32.168Z,14.29
2023-03-26T00:03:59.508Z,14.13
2023-03-26T00:06:37.591Z,13.81
2023-03-26T00:09:06.973Z,13.97
2023-03-26T00:11:34.364Z,13.11
2023-03-26T00:14:00.838Z,13.36
2023-03-26T00:16:29.699Z,13.41
2023-03-26T00:18:57.017Z,13.12
2023-03-26T00:21:25.461Z,13.46
2023-03-26T00:23:52.106Z,13.54
2023-03-26T00:26:18.565Z,13.64
2023-03-26T00:28:45.046Z,13.83
2023-03-26T00:31:14.539Z,13.95
2023-03-26T00:33:42.171Z,13.79
2023-03-26T00:36:16.137Z,13.80
2023-03-26T00:38:44.923Z,13.52
2023-03-26T00:41:14.103Z,13.63
2023-03-26T00:43:40.568Z,13.31
2023-03-26T00:46:07.043Z,13.17
2023-03-26T00:48:44.588Z,13.45
2023-03-26T00:51:14.485Z,13.67
2023-03-26T00:53:42.115Z,13.75
2023-03-26T00:56:09.438Z,13.45
2023-03-26T00:58:36.172Z,12.84
2023-03-26T01:01:06.624Z,13.12
2023-03-26T01:03:36.283Z,13.13
2023-03-26T01:06:05.662Z,13.35
2023-03-26T01:08:40.013Z,13.27
2023-03-26T01:11:11.559Z,13.49
2023-03-26T01:13:38.868Z,13.32
2023-03-26T01:16:15.850Z,13.40
2023-03-26T01:18:42.387Z,13.43
2023-03-26T01:21:08.893Z,13.35
2023-03-26T01:23:42.889Z,13.48
2023-03-26T01:26:27.393Z,13.42
2023-03-26T01:28:59.456Z,13.30
2023-03-26T01:31:34.682Z,13.47
2023-03-26T01:34:30.740Z,13.68
2023-03-26T01:37:12.875Z,13.82
2023-03-26T01:39:54.838Z,13.91
2023-03-26T01:42:43.546Z,14.11
2023-03-26T01:45:16.320Z,14.12
2023-03-26T01:47:45.078Z,14.21
2023-03-26T01:50:12.657Z,14.25
2023-03-26T01:52:39.126Z,14.25
2023-03-26T01:55:08.417Z,14.28
2023-03-26T01:57:45.434Z,14.38
2023-03-26T02:00:27.946Z,14.39
2023-03-26T02:03:15.683Z,13.99
2023-03-26T02:05:52.379Z,14.02
2023-03-26T02:08:34.032Z,14.11
2023-03-26T02:11:09.358Z,14.21
2023-03-26T02:13:37.200Z,14.30
2023-03-26T02:16:07.656Z,14.33
2023-03-26T02:18:35.361Z,14.45
2023-03-26T02:21:07.464Z,14.32
2023-03-26T02:23:33.915Z,14.35
2023-03-26T02:26:00.383Z,14.33
2023-03-26T02:28:26.940Z,13.98
2023-03-26T02:30:53.541Z,13.56
2023-03-26T02:33:20.013Z,13.28
2023-03-26T02:35:46.557Z,12.89
2023-03-26T02:38:13.136Z,12.70
2023-03-26T02:40:40.127Z,12.86
2023-03-26T02:43:07.122Z,12.22
2023-03-26T02:45:33.709Z,12.28
2023-03-26T02:48:00.222Z,12.40
2023-03-26T02:50:26.904Z,12.47
2023-03-26T02:52:53.349Z,12.46
2023-03-26T02:55:19.866Z,12.47
2023-03-26T02:57:46.413Z,12.50
2023-03-26T03:00:13.397Z,12.46
2023-03-26T03:02:39.966Z,12.80
2023-03-26T03:05:06.764Z,12.51
2023-03-26T03:07:33.325Z,12.42
2023-03-26T03:09:59.848Z,12.13
2023-03-26T03:12:26.298Z,12.19
2023-03-26T03:14:52.773Z,12.22
2023-03-26T03:17:19.287Z,12.53
2023-03-26T03:19:45.733Z,12.40
2023-03-26T03:22:12.338Z,12.47
2023-03-26T03:24:38.820Z,12.27
2023-03-26T03:27:05.732Z,12.58
2023-03-26T03:29:32.260Z,12.56
2023-03-26T03:31:58.731Z,11.78
2023-03-26T03:34:25.217Z,11.39
2023-03-26T03:36:51.780Z,11.58
2023-03-26T03:39:18.232Z,11.65
2023-03-26T03:41:44.721Z,11.94
2023-03-26T03:44:11.218Z,11.64
2023-03-26T03:46:37.814Z,11.63
2023-03-26T03:49:04.315Z,11.64
2023-03-26T03:51:30.773Z,11.62
2023-03-26T03:53:57.235Z,11.62
2023-03-26T03:56:23.712Z,11.84
2023-03-26T03:58:50.532Z,11.70
2023-03-26T04:01:17.151Z,11.94
2023-03-26T04:03:43.936Z,11.65
2023-03-26T04:06:10.482Z,12.11
2023-03-26T04:08:36.986Z,12.27
2023-03-26T04:11:03.561Z,12.51
2023-03-26T04:13:30.189Z,11.99
2023-03-26T04:15:56.980Z,11.79
2023-03-26T04:18:23.760Z,11.94
2023-03-26T04:20:50.211Z,12.02
2023-03-26T04:23:18.606Z,12.42
2023-03-26T04:25:49.310Z,12.40
2023-03-26T04:28:34.880Z,12.60
2023-03-26T04:31:03.133Z,12.55
2023-03-26T04:33:32.637Z,12.91
2023-03-26T04:36:00.556Z,12.69
2023-03-26T04:38:29.321Z,12.39
2023-03-26T04:40:55.782Z,12.41
2023-03-26T04:43:22.267Z,12.22
2023-03-26T04:45:48.755Z,12.15
2023-03-26T04:48:15.350Z,11.85
2023-03-26T04:50:45.048Z,11.77
2023-03-26T04:53:15.955Z,11.84
2023-03-26T04:56:00.133Z,12.06
2023-03-26T04:58:27.025Z,11.92
2023-03-26T05:00:53.583Z,11.93
2023-03-26T05:03:20.110Z,11.87
2023-03-26T05:05:46.740Z,11.85
2023-03-26T05:08:13.219Z,11.39
2023-03-26T05:10:39.758Z,11.50
2023-03-26T05:13:06.236Z,11.72
2023-03-26T05:15:32.725Z,11.78
2023-03-26T05:17:59.240Z,11.43
2023-03-26T05:20:28.471Z,11.62
2023-03-26T05:22:55.029Z,11.40
2023-03-26T05:25:21.746Z,10.92
2023-03-26T05:27:48.309Z,11.14
2023-03-26T05:30:20.069Z,11.18
2023-03-26T05:32:48.467Z,11.13
2023-03-26T05:35:16.029Z,11.14
2023-03-26T05:37:43.783Z,11.51
2023-03-26T05:40:12.093Z,11.81
2023-03-26T05:42:39.757Z,11.79
2023-03-26T05:45:07.940Z,12.22
2023-03-26T05:47:34.990Z,12.48
2023-03-26T05:50:01.634Z,12.55
2023-03-26T05:52:28.766Z,12.60
2023-03-26T05:54:55.276Z,12.48
2023-03-26T05:57:21.843Z,12.25
2023-03-26T05:59:48.443Z,12.34
2023-03-26T06:02:15.248Z,12.26
2023-03-26T06:04:41.889Z,11.94
2023-03-26T06:07:08.673Z,11.61
2023-03-26T06:09:35.785Z,11.51
2023-03-26T06:12:02.297Z,11.12
2023-03-26T06:14:28.762Z,11.00
2023-03-26T06:16:55.251Z,10.99
2023-03-26T06:19:21.762Z,11.02
2023-03-26T06:21:48.290Z,11.48
2023-03-26T06:24:14.932Z,11.50
2023-03-26T06:26:41.441Z,11.68
2023-03-26T06:29:08.511Z,11.63
2023-03-26T06:31:35.095Z,11.22
2023-03-26T06:34:01.624Z,11.50
2023-03-26T06:36:28.103Z,11.54
2023-03-26T06:38:54.595Z,11.84
2023-03-26T06:41:21.069Z,11.95
2023-03-26T06:43:47.589Z,11.62
2023-03-26T06:46:14.361Z,11.73
2023-03-26T06:48:41.464Z,12.25
2023-03-26T06:51:09.406Z,11.99
2023-03-26T06:53:35.897Z,12.21
2023-03-26T06:56:02.393Z,12.51
2023-03-26T06:58:29.405Z,12.58
2023-03-26T07:00:56.796Z,12.27
2023-03-26T07:03:23.968Z,12.63
2023-03-26T07:05:50.488Z,12.64
2023-03-26T07:08:16.941Z,12.78
2023-03-26T07:10:44.062Z,12.82
2023-03-26T07:13:10.775Z,12.60
2023-03-26T07:15:37.668Z,12.68
2023-03-26T07:18:04.465Z,12.76
2023-03-26T07:20:31.247Z,11.97
2023-03-26T07:22:57.964Z,11.62
2023-03-26T07:25:25.231Z,11.54
2023-03-26T07:27:54.725Z,11.20
2023-03-26T07:30:56.723Z,11.21
2023-03-26T07:33:52.949Z,11.26
2023-03-26T07:36:56.423Z,11.66
2023-03-26T07:39:55.696Z,11.80
2023-03-26T07:43:02.216Z,11.66
2023-03-26T07:45:39.896Z,12.08
2023-03-26T07:48:16.015Z,11.94
2023-03-26T07:50:42.839Z,12.24
2023-03-26T07:53:10.344Z,11.82
2023-03-26T07:55:52.980Z,11.79
2023-03-26T07:58:41.172Z,12.31
2023-03-26T08:01:43.809Z,12.03
2023-03-26T08:04:39.959Z,12.30
2023-03-26T08:07:51.344Z,12.36
2023-03-26T08:10:52.621Z,11.82
2023-03-26T08:14:09.754Z,11.60
2023-03-26T08:17:11.313Z,12.08
2023-03-26T08:20:11.719Z,12.06
2023-03-26T08:23:01.067Z,12.00
2023-03-26T08:26:13.858Z,12.55
2023-03-26T08:29:01.683Z,12.63
2023-03-26T08:31:50.190Z,12.36
2023-03-26T08:34:36.670Z,12.23
2023-03-26T08:37:23.527Z,12.54
2023-03-26T08:40:10.357Z,12.65
2023-03-26T08:43:31.487Z,12.66
2023-03-26T08:46:27.171Z,12.61
2023-03-26T08:49:31.947Z,12.89
2023-03-26T08:52:29.055Z,12.39
2023-03-26T08:55:13.891Z,12.55
2023-03-26T08:58:25.457Z,12.38
2023-03-26T09:01:29.277Z,12.63
2023-03-26T09:04:14.466Z,13.04
2023-03-26T09:07:07.767Z,12.57
2023-03-26T09:10:11.297Z,12.73
2023-03-26T09:13:14.867Z,12.61
2023-03-26T09:16:08.234Z,13.12
2023-03-26T09:19:02.542Z,12.63
2023-03-26T09:22:06.442Z,13.02
2023-03-26T09:24:51.517Z,12.49
2023-03-26T09:27:56.523Z,12.65
2023-03-26T09:30:40.978Z,12.24
2023-03-26T09:33:28.350Z,11.94
2023-03-26T09:36:18.515Z,11.79
2023-03-26T09:38:53.287Z,12.15
2023-03-26T09:41:38.263Z,11.93
2023-03-26T09:44:19.587Z,11.81
2023-03-26T09:46:57.738Z,11.96
2023-03-26T09:49:33.097Z,11.72
2023-03-26T09:52:23.919Z,11.51
2023-03-26T09:55:13.484Z,11.19
2023-03-26T09:58:01.587Z,11.30
2023-03-26T10:00:40.020Z,11.58
2023-03-26T10:03:30.898Z,11.68
2023-03-26T10:06:30.285Z,11.69
2023-03-26T10:09:19.590Z,11.74
2023-03-26T10:12:16.494Z,11.80
2023-03-26T10:15:28.880Z,11.98
2023-03-26T10:18:27.145Z,12.12
2023-03-26T10:21:10.606Z,12.02
2023-03-26T10:23:52.201Z,12.43
2023-03-26T10:26:35.019Z,12.15
2023-03-26T10:29:50.431Z,12.25
2023-03-26T10:32:19.948Z,12.04
2023-03-26T10:35:15.485Z,12.23
2023-03-26T10:38:01.573Z,12.54
2023-03-26T10:40:53.544Z,12.77
2023-03-26T10:44:01.603Z,12.91
2023-03-26T10:46:53.435Z,12.75
2023-03-26T10:49:50.715Z,12.74
2023-03-26T10:52:46.566Z,12.75
2023-03-26T10:55:35.044Z,12.50
2023-03-26T10:58:20.398Z,12.34
2023-03-26T11:01:04.148Z,12.12
2023-03-26T11:03:52.338Z,11.67
2023-03-26T11:06:33.821Z,11.48
2023-03-26T11:09:19.827Z,11.80
2023-03-26T11:12:00.902Z,11.66
2023-03-26T11:14:46.716Z,11.67
2023-03-26T11:17:41.581Z,11.76
2023-03-26T11:20:17.362Z,11.61
2023-03-26T11:23:08.442Z,11.99
2023-03-26T11:25:42.895Z,11.64
2023-03-26T11:29:05.860Z,11.53
2023-03-26T11:32:03.601Z,11.31
2023-03-26T11:35:00.660Z,11.07
2023-03-26T11:37:55.204Z,10.94
2023-03-26T11:40:31.829Z,10.73
2023-03-26T11:43:08.697Z,10.76
2023-03-26T11:45:39.065Z,10.92
2023-03-26T11:48:17.464Z,10.61
2023-03-26T11:50:53.827Z,10.46
2023-03-26T11:53:27.449Z,10.69
2023-03-26T11:56:03.021Z,10.23
2023-03-26T11:59:14.478Z,10.00
2023-03-26T12:01:44.165Z,9.31
2023-03-26T12:04:14.103Z,9.46
2023-03-26T12:06:56.080Z,9.64
2023-03-26T12:09:23.741Z,9.44
2023-03-26T12:11:59.660Z,9.21
2023-03-26T12:14:30.305Z,9.22
2023-03-26T12:17:05.468Z,9.67
2023-03-26T12:19:40.018Z,9.91
2023-03-26T12:22:28.129Z,10.48
2023-03-26T12:25:21.812Z,10.86
2023-03-26T12:27:50.897Z,10.57
2023-03-26T12:30:23.581Z,10.72
2023-03-26T12:32:53.229Z,10.79
2023-03-26T12:35:26.288Z,10.84
2023-03-26T12:37:54.480Z,11.12
2023-03-26T12:40:32.794Z,11.59
2023-03-26T12:44:47.107Z,11.89
2023-03-26T12:47:56.521Z,12.19
2023-03-26T12:48:40.944Z,12.21
2023-03-26T12:51:18.254Z,12.25
2023-03-26T12:53:58.687Z,11.58
2023-03-26T12:57:12.694Z,10.97
2023-03-26T12:59:59.348Z,10.52
2023-03-26T13:02:52.843Z,10.29
2023-03-26T13:05:34.552Z,8.68
2023-03-26T13:08:39.066Z,7.88
2023-03-26T13:11:19.892Z,7.40
2023-03-26T13:14:15.455Z,7.59
2023-03-26T13:16:53.151Z,7.75
2023-03-26T13:19:42.233Z,7.58
2023-03-26T13:22:33.353Z,8.16
2023-03-26T13:24:59.783Z,8.40
2023-03-26T13:27:39.846Z,8.85
2023-03-26T13:30:36.127Z,8.97
2023-03-26T13:33:24.287Z,9.38
2023-03-26T13:36:22.600Z,9.55
2023-03-26T13:38:59.263Z,9.93
2023-03-26T13:41:50.360Z,10.31
2023-03-26T13:44:44.757Z,10.50
2023-03-26T13:47:23.467Z,10.95
2023-03-26T13:49:56.825Z,11.15
2023-03-26T13:52:49.704Z,11.32
2023-03-26T13:55:22.074Z,11.28
2023-03-26T13:58:10.252Z,11.49
2023-03-26T14:01:00.822Z,11.63
2023-03-26T14:03:41.800Z,11.73
2023-03-26T14:06:26.362Z,12.12
2023-03-26T14:09:17.232Z,12.02
2023-03-26T14:11:57.843Z,12.25
2023-03-26T14:14:45.587Z,12.29
2023-03-26T14:17:23.188Z,12.09
2023-03-26T14:20:34.651Z,11.75
2023-03-26T14:23:42.350Z,11.56
2023-03-26T14:26:14.483Z,11.93
2023-03-26T14:29:02.669Z,12.05
2023-03-26T14:31:58.263Z,12.50
2023-03-26T14:34:39.777Z,12.69
2023-03-26T14:37:27.899Z,12.51
2023-03-26T14:40:31.259Z,12.49
2023-03-26T14:43:09.464Z,12.46
2023-03-26T14:46:03.565Z,12.55
2023-03-26T14:48:53.993Z,13.07
2023-03-26T14:51:49.660Z,13.42
2023-03-26T14:54:23.019Z,13.28
2023-03-26T14:57:14.259Z,13.49
2023-03-26T15:00:01.864Z,13.44
2023-03-26T15:02:46.501Z,13.80
2023-03-26T15:05:15.829Z,13.91
2023-03-26T15:08:11.723Z,14.00
2023-03-26T15:11:15.813Z,13.48
2023-03-26T15:14:14.201Z,14.19
2023-03-26T15:17:10.274Z,14.15
2023-03-26T15:20:13.291Z,13.86
2023-03-26T15:23:17.163Z,13.91
2023-03-26T15:26:17.760Z,14.10
2023-03-26T15:28:56.124Z,14.69
2023-03-26T15:31:55.111Z,15.22
2023-03-26T15:34:50.338Z,15.67
2023-03-26T15:37:38.540Z,15.88
2023-03-26T15:40:13.837Z,15.46
2023-03-26T15:42:46.362Z,15.54
2023-03-26T15:45:26.346Z,15.95
2023-03-26T15:48:11.251Z,16.19
2023-03-26T15:50:53.714Z,16.61
2023-03-26T15:53:42.844Z,17.03
2023-03-26T15:56:41.307Z,17.34
2023-03-26T15:59:10.745Z,17.43
2023-03-26T16:02:00.398Z,17.59
2023-03-26T16:04:50.066Z,17.48
2023-03-26T16:07:39.855Z,17.80
2023-03-26T16:10:25.277Z,17.73
2023-03-26T16:13:16.851Z,17.53
2023-03-26T16:15:53.215Z,17.10
2023-03-26T16:18:35.099Z,16.88
2023-03-26T16:21:31.686Z,17.10
2023-03-26T16:24:02.075Z,16.27
2023-03-26T16:26:31.394Z,16.12
2023-03-26T16:29:21.263Z,15.99
2023-03-26T16:32:18.616Z,16.13
2023-03-26T16:34:58.435Z,15.63
2023-03-26T16:37:50.209Z,15.31
2023-03-26T16:40:16.663Z,14.91
2023-03-26T16:43:16.597Z,14.44
2023-03-26T16:46:08.434Z,14.00
2023-03-26T16:48:34.886Z,14.24
2023-03-26T16:51:40.945Z,14.50
2023-03-26T16:54:33.423Z,14.47
2023-03-26T16:57:30.535Z,14.45
2023-03-26T17:00:07.394Z,14.24
2023-03-26T17:02:34.148Z,14.12
2023-03-26T17:05:23.728Z,14.13
2023-03-26T17:08:16.077Z,13.79
2023-03-26T17:10:55.463Z,13.18
2023-03-26T17:13:47.431Z,12.49
2023-03-26T17:16:33.458Z,12.11
2023-03-26T17:19:24.420Z,11.93
2023-03-26T17:21:56.601Z,11.71
2023-03-26T17:24:51.484Z,11.64
2023-03-26T17:27:28.755Z,11.63
2023-03-26T17:30:23.360Z,12.14
2023-03-26T17:33:01.449Z,12.29
2023-03-26T17:35:36.327Z,12.41
2023-03-26T17:38:04.347Z,12.66
2023-03-26T17:40:46.485Z,12.64
2023-03-26T17:43:35.306Z,12.46
2023-03-26T17:46:26.997Z,12.23
2023-03-26T17:49:07.386Z,12.15
2023-03-26T17:51:46.249Z,12.12
2023-03-26T17:54:38.070Z,12.28
2023-03-26T17:57:25.076Z,12.41
2023-03-26T17:59:57.604Z,12.78
2023-03-26T18:02:41.501Z,12.90
2023-03-26T18:05:12.276Z,13.02
2023-03-26T18:08:13.149Z,13.23
2023-03-26T18:10:58.261Z,12.93
2023-03-26T18:13:30.604Z,13.11
2023-03-26T18:16:39.108Z,12.88
2023-03-26T18:19:16.605Z,12.23
2023-03-26T18:21:44.100Z,12.02
2023-03-26T18:24:17.893Z,11.25
2023-03-26T18:26:51.481Z,10.26
2023-03-26T18:29:22.277Z,10.12
2023-03-26T18:32:08.616Z,9.85
2023-03-26T18:34:39.868Z,9.55
2023-03-26T18:37:21.436Z,9.49
2023-03-26T18:40:01.477Z,9.37
2023-03-26T18:42:32.308Z,9.14
2023-03-26T18:45:07.677Z,9.29
2023-03-26T18:47:34.341Z,9.13
2023-03-26T18:50:01.070Z,9.65
2023-03-26T18:52:29.609Z,9.98
2023-03-26T18:54:58.166Z,9.99
2023-03-26T18:57:29.515Z,10.04
2023-03-26T19:00:15.289Z,10.35
2023-03-26T19:02:42.405Z,9.64
2023-03-26T19:05:15.331Z,9.95
2023-03-26T19:07:43.921Z,10.15
2023-03-26T19:10:17.004Z,10.44
2023-03-26T19:12:43.562Z,10.75
2023-03-26T19:15:14.630Z,10.87
2023-03-26T19:17:48.283Z,11.08
2023-03-26T19:20:22.425Z,11.21
2023-03-26T19:22:50.648Z,11.32
2023-03-26T19:25:24.283Z,11.21
2023-03-26T19:27:51.409Z,11.18
2023-03-26T19:30:28.852Z,11.24
2023-03-26T19:32:55.783Z,11.31
2023-03-26T19:35:41.906Z,10.86
2023-03-26T19:38:25.023Z,10.65
2023-03-26T19:40:55.477Z,10.45
2023-03-26T19:43:24.363Z,10.66
2023-03-26T19:46:00.016Z,10.32
2023-03-26T19:48:46.598Z,10.51
2023-03-26T19:51:36.672Z,10.65
2023-03-26T19:54:13.470Z,10.57
2023-03-26T19:56:39.996Z,10.47
2023-03-26T19:59:06.483Z,10.37
2023-03-26T20:01:33.312Z,10.53
2023-03-26T20:04:04.074Z,10.77
2023-03-26T20:06:42.574Z,10.95
2023-03-26T20:09:11.683Z,11.05
2023-03-26T20:11:39.012Z,10.92
2023-03-26T20:14:18.198Z,10.48
2023-03-26T20:16:45.802Z,10.74
2023-03-26T20:19:14.307Z,10.51
2023-03-26T20:21:42.065Z,10.61
2023-03-26T20:24:15.660Z,10.82
2023-03-26T20:26:42.952Z,10.97
2023-03-26T20:29:09.605Z,11.12
2023-03-26T20:31:36.249Z,11.24
2023-03-26T20:34:02.877Z,11.32
2023-03-26T20:36:33.900Z,11.48
2023-03-26T20:39:03.732Z,11.27
2023-03-26T20:41:30.362Z,11.42
2023-03-26T20:43:56.932Z,11.38
2023-03-26T20:46:31.175Z,11.42
2023-03-26T20:48:58.964Z,11.53
2023-03-26T20:51:25.839Z,10.95
2023-03-26T20:53:52.426Z,11.17
2023-03-26T20:56:21.473Z,11.32
2023-03-26T20:58:52.583Z,11.44
2023-03-26T21:01:24.278Z,11.57
2023-03-26T21:03:50.799Z,11.65
2023-03-26T21:06:17.277Z,11.71
2023-03-26T21:08:44.661Z,11.62
2023-03-26T21:11:26.538Z,11.71
2023-03-26T21:14:09.190Z,11.51
2023-03-26T21:16:36.047Z,11.18
2023-03-26T21:19:02.823Z,11.36
2023-03-26T21:21:43.404Z,11.42
2023-03-26T21:24:33.646Z,11.51
2023-03-26T21:27:17.081Z,11.59
2023-03-26T21:29:43.806Z,11.60
2023-03-26T21:32:11.283Z,11.64
2023-03-26T21:34:42.107Z,11.65
2023-03-26T21:37:15.916Z,11.68
2023-03-26T21:39:42.560Z,11.66
2023-03-26T21:42:11.188Z,11.38
2023-03-26T21:44:38.481Z,11.14
2023-03-26T21:47:05.849Z,11.13
2023-03-26T21:49:33.471Z,11.19
2023-03-26T21:52:00.267Z,11.20
2023-03-26T21:54:30.070Z,11.27
2023-03-26T21:57:31.977Z,11.45
2023-03-26T22:00:00.971Z,11.47
2023-03-26T22:02:39.063Z,11.59
2023-03-26T22:05:24.448Z,11.30
2023-03-26T22:07:54.788Z,11.41
2023-03-26T22:10:21.765Z,11.42
2023-03-26T22:12:48.607Z,11.53
2023-03-26T22:15:15.393Z,11.59
2023-03-26T22:17:42.030Z,11.68
2023-03-26T22:20:14.342Z,11.74
2023-03-26T22:22:42.503Z,11.72
2023-03-26T22:25:09.095Z,11.74
2023-03-26T22:27:44.105Z,11.26
2023-03-26T22:30:12.910Z,11.09
2023-03-26T22:32:40.160Z,10.96
2023-03-26T22:35:07.217Z,11.13
2023-03-26T22:37:34.288Z,10.95
2023-03-26T22:40:00.933Z,11.19
2023-03-26T22:42:27.524Z,11.27
2023-03-26T22:44:54.020Z,10.98
2023-03-26T22:47:20.557Z,11.04
2023-03-26T22:49:47.139Z,11.01
2023-03-26T22:52:13.616Z,10.94
2023-03-26T22:54:40.156Z,11.17
2023-03-26T22:57:06.667Z,11.09
2023-03-26T22:59:33.181Z,11.29
2023-03-26T23:01:59.687Z,11.42
2023-03-26T23:04:30.508Z,11.49
2023-03-26T23:06:57.503Z,11.23
2023-03-26T23:09:23.981Z,11.51
2023-03-26T23:11:50.597Z,11.61
2023-03-26T23:14:17.165Z,11.41
2023-03-26T23:16:43.637Z,11.20
2023-03-26T23:19:10.204Z,11.44
2023-03-26T23:21:36.702Z,11.37
2023-03-26T23:24:03.332Z,11.38
2023-03-26T23:26:34.962Z,11.37
2023-03-26T23:29:04.459Z,11.08
2023-03-26T23:31:31.152Z,11.24
2023-03-26T23:33:57.990Z,11.37
2023-03-26T23:36:25.673Z,11.50
2023-03-26T23:38:52.299Z,11.37
2023-03-26T23:41:21.959Z,11.47
2023-03-26T23:43:53.954Z,11.55
2023-03-26T23:46:24.384Z,11.67
2023-03-26T23:48:51.467Z,11.57
2023-03-26T23:51:19.059Z,11.76
2023-03-26T23:53:47.094Z,11.81
2023-03-26T23:56:13.735Z,11.80
2023-03-26T23:58:40.191Z,11.55
